sim
Sign-in with your pilot id or email,
or register
Callsign
Passwort

Schedule Details

Flight Number: OEO7302
Departure: Munich Airport (EDDM) at 05:00
Arrival: Moscow Domodedovo International Airport (UUDD) at 08:15

Weather Information
Getting current METAR information for EDDM 211850Z 23001KT CAVOK 14/12 Q1016 NOSIG
Getting current METAR information for UUDD 211900Z 27004MPS 9999 BKN034 12/08 Q1015 R32L/CLRD60 NOSIG

Schedule Frequency

Route Map